首页
METAR-TAF:

METAR-TAF

机场 :

利雅德, 沙特阿拉伯

纬度: 24-43N, 经度: 046-44E, 海拔: 635米

当前天气观测

该预报发布于8小时和24分钟前的19:00 UTC
风速8节,风向东北
温度 17°C
湿度 68%
气压 1019 hPa
能见度10公里或以上
1500米以下无云,无积雨云

METAR: OERY 111900Z 04008KT CAVOK 17/11 Q1019

时间: 06:24 (03:24 UTC)

预报

该预报发布于4小时和24分钟前的23:00 UTC
预报有效从12日的 00点(UTC)到 13日的 06点(UTC)
风速3节,风向多变
能見度: 6000
少量云层高于4000英尺
短暂存在
从 12日的 00点(UTC)到 12日的 06点(UTC)
能見度: 3000
散云层高于2000英尺
轻雾
几率 40% :
短暂存在
从 12日的 00点(UTC)到 12日的 05点(UTC)
能見度: 0600
散云层高于1500英尺
成为
从 12日的 06点(UTC)到 12日的 08点(UTC)
风速15节,风向南转南东
短暂存在
从 12日的 18点(UTC)到 12日的 24点(UTC)
能見度: 3000
少量云层高于3500英尺, 积雨云.
多云层高于4000英尺
高吹尘, 雷暴, 雨

TAF: OERY 112300Z 1200/1306 VRB03KT 6000 FEW040 TEMPO 1200/1206 3000 BR SCT020 PROB40 TEMPO 1200/1205 0600 FG SCT015 BECMG 1206/1208 15015KT TEMPO 1218/1224 3000 BLDU TSRA FEW035CB BKN040

超过4000个机场的气象观测和天气预报(METAR&TAF报告)。

可查询的气象台以黄色和红色小点在地图上表示。

将鼠标移到小点上方,可查看气象台名称。

然后点击查看天气观测和预报。

如需切换地图:点击带黑十字的绿色按钮放大地图;点击带横线的绿色按钮缩小地图;或者点击绿色箭头查看邻近地区的地图。


METAR-TAF: